Time;durP1;ratioP1;P1;durP2;ratioP2;P2;SDS_P1;SDS_P2;PMS_P1;PMS_P2;Temp;Humidity;BMP_temperature;BMP_pressure;BME280_temperature;BME280_humidity;BME280_pressure;Samples;Min_cycle;Max_cycle;Signal;HPM_P1;HPM_P2
2022/07/21 00:02:17;;;;;;;160.67;80.57;;;;;;;21.36;48.87;97214.84;4817694;29;20641;-70
2022/07/21 00:04:44;;;;;;;129.73;59.00;;;;;;;20.85;50.22;97213.00;4817646;29;20262;-71
2022/07/21 00:07:11;;;;;;;102.63;45.73;;;;;;;20.62;50.91;97216.72;4817217;29;20719;-71
2022/07/21 00:09:38;;;;;;;102.77;48.97;;;;;;;20.45;51.84;97212.00;4817980;29;20202;-71
2022/07/21 00:12:06;;;;;;;122.03;53.20;;;;;;;20.30;52.31;97204.56;4817247;29;20226;-71
2022/07/21 00:14:33;;;;;;;88.03;40.13;;;;;;;20.20;53.05;97213.19;4818288;29;20284;-71
2022/07/21 00:17:00;;;;;;;81.83;36.33;;;;;;;20.37;52.49;97214.44;4820128;29;20238;-70
2022/07/21 00:19:27;;;;;;;111.60;50.37;;;;;;;20.48;51.69;97211.78;4820249;29;20245;-72
2022/07/21 00:21:54;;;;;;;179.70;87.03;;;;;;;20.31;51.82;97220.22;4820498;29;20218;-72
2022/07/21 00:24:21;;;;;;;225.87;108.63;;;;;;;20.01;52.71;97220.03;4820127;29;20222;-71
2022/07/21 00:26:47;;;;;;;165.50;78.20;;;;;;;19.70;54.48;97223.44;4820711;29;20694;-72
2022/07/21 00:29:15;;;;;;;155.73;70.63;;;;;;;19.66;55.40;97217.56;4820002;29;20266;-71
2022/07/21 00:31:41;;;;;;;164.20;78.40;;;;;;;19.80;54.97;97212.09;4820638;29;20209;-71
2022/07/21 00:34:09;;;;;;;147.20;69.43;;;;;;;19.93;54.47;97212.75;4820230;29;20248;-72
2022/07/21 00:36:35;;;;;;;131.03;59.93;;;;;;;19.94;54.58;97216.22;4820046;29;20262;-71
2022/07/21 00:39:02;;;;;;;88.53;40.20;;;;;;;19.80;55.35;97216.50;4820059;29;20585;-70
2022/07/21 00:41:29;;;;;;;71.77;34.53;;;;;;;20.01;55.01;97214.78;4819874;29;20269;-72
2022/07/21 00:43:56;;;;;;;46.13;25.03;;;;;;;20.00;55.02;97213.94;4820684;29;20318;-72
2022/07/21 00:46:23;;;;;;;32.03;17.37;;;;;;;19.74;55.90;97209.09;4819834;29;20244;-72
2022/07/21 00:48:50;;;;;;;33.23;18.63;;;;;;;19.45;57.34;97208.78;4820359;29;20217;-72
2022/07/21 00:51:18;;;;;;;35.47;18.33;;;;;;;19.25;57.47;97205.03;4819962;29;20220;-72
2022/07/21 00:53:46;;;;;;;36.03;18.03;;;;;;;19.32;57.66;97201.00;4819807;29;20805;-72
2022/07/21 00:56:13;;;;;;;34.77;17.73;;;;;;;19.28;57.73;97207.44;4819988;29;20630;-72
2022/07/21 00:58:40;;;;;;;27.77;16.30;;;;;;;19.19;57.45;97189.75;4819614;29;20240;-72
2022/07/21 01:01:07;;;;;;;31.10;18.37;;;;;;;19.15;57.79;97201.44;4820423;29;20202;-72
2022/07/21 01:03:34;;;;;;;64.63;32.53;;;;;;;19.00;58.57;97194.75;4819613;29;20220;-72
2022/07/21 01:06:02;;;;;;;70.63;34.97;;;;;;;19.11;58.12;97194.78;4819791;29;20216;-70
2022/07/21 01:08:29;;;;;;;63.93;33.30;;;;;;;19.39;57.51;97193.50;4820135;29;20204;-71
2022/07/21 01:10:56;;;;;;;70.93;32.83;;;;;;;19.65;56.77;97192.28;4819698;29;20701;-72
2022/07/21 01:13:24;;;;;;;65.23;34.03;;;;;;;19.72;56.59;97190.00;4819825;29;20278;-71
2022/07/21 01:15:51;;;;;;;66.13;33.00;;;;;;;19.45;57.10;97185.13;4819561;29;20278;-71
2022/07/21 01:18:18;;;;;;;56.90;27.20;;;;;;;19.16;58.04;97178.66;4819777;29;20249;-72
2022/07/21 01:20:52;;;;;;;55.83;25.53;;;;;;;19.12;58.08;97185.97;4819216;29;20213;-69
2022/07/21 01:23:21;;;;;;;48.53;25.87;;;;;;;18.99;58.44;97179.97;4819533;29;20216;-70
2022/07/21 01:25:50;;;;;;;58.87;26.30;;;;;;;18.88;58.66;97179.94;4818765;29;20213;-70
2022/07/21 01:28:17;;;;;;;60.27;30.10;;;;;;;18.85;58.70;97181.97;4819562;29;20262;-72
2022/07/21 01:30:44;;;;;;;64.17;31.27;;;;;;;18.81;58.85;97170.88;4819574;29;20656;-71
2022/07/21 01:33:11;;;;;;;69.83;32.40;;;;;;;18.67;59.13;97174.53;4819073;29;20229;-70
2022/07/21 01:35:38;;;;;;;52.40;27.63;;;;;;;18.59;59.32;97174.28;4819603;29;20261;-69
2022/07/21 01:41:28;;;;;;;58.90;29.70;;;;;;;18.45;59.70;97171.03;4818777;29;20201;-70
2022/07/21 01:43:46;;;;;;;56.17;26.87;;;;;;;18.40;59.79;97171.34;4819367;29;20757;-70
2022/07/21 01:46:13;;;;;;;55.97;25.40;;;;;;;18.37;60.30;97165.50;4819392;29;20661;-69
2022/07/21 01:48:43;;;;;;;33.63;17.57;;;;;;;18.27;60.13;97169.75;4819694;29;20303;-70
2022/07/21 01:51:13;;;;;;;32.13;16.80;;;;;;;18.13;60.62;97172.56;4818899;29;20277;-69
2022/07/21 01:53:40;;;;;;;28.97;14.13;;;;;;;18.14;60.15;97158.50;4819095;29;20297;-69
2022/07/21 01:56:07;;;;;;;13.10;8.20;;;;;;;18.17;60.46;97166.16;4818977;29;20303;-70
2022/07/21 01:58:35;;;;;;;8.47;6.37;;;;;;;18.19;60.71;97162.47;4819013;29;20236;-70
2022/07/21 02:01:02;;;;;;;11.63;5.83;;;;;;;18.14;60.32;97163.75;4802803;29;20211;-69
2022/07/21 02:03:29;;;;;;;12.03;7.30;;;;;;;18.23;60.12;97169.16;4818671;29;20257;-69
2022/07/21 02:06:02;;;;;;;13.20;8.37;;;;;;;18.18;60.33;97162.56;4819461;29;20213;-69
2022/07/21 02:08:29;;;;;;;21.00;10.73;;;;;;;18.32;59.81;97157.16;4818797;29;20639;-70
2022/07/21 02:10:56;;;;;;;21.50;10.83;;;;;;;18.47;59.37;97156.00;4818889;29;20209;-69
2022/07/21 02:13:23;;;;;;;21.60;11.13;;;;;;;18.37;59.29;97147.13;4818739;29;20321;-69
2022/07/21 02:15:50;;;;;;;25.03;12.10;;;;;;;18.46;59.41;97154.34;4819235;29;20208;-70
2022/07/21 02:18:17;;;;;;;34.60;18.00;;;;;;;18.40;59.27;97155.59;4818746;29;20253;-71
2022/07/21 02:20:47;;;;;;;32.27;15.53;;;;;;;18.50;59.22;97150.56;4818443;29;20239;-71
2022/07/21 02:23:14;;;;;;;25.77;13.93;;;;;;;18.41;59.45;97140.72;4819080;29;20237;-71
2022/07/21 02:25:42;;;;;;;27.23;13.80;;;;;;;18.48;59.31;97144.59;4818475;29;20640;-71
2022/07/21 02:28:09;;;;;;;28.80;16.03;;;;;;;18.58;58.92;97142.94;4818556;29;20296;-71
2022/07/21 02:30:37;;;;;;;36.77;17.67;;;;;;;18.77;58.07;97137.97;4818538;29;20221;-71
2022/07/21 02:33:04;;;;;;;31.83;18.33;;;;;;;18.67;58.39;97131.72;4818329;29;20792;-71
2022/07/21 02:35:32;;;;;;;37.43;19.23;;;;;;;18.83;58.36;97136.66;4818802;29;20210;-71
2022/07/21 02:37:59;;;;;;;40.70;19.70;;;;;;;19.07;57.40;97140.84;4817948;29;20265;-70
2022/07/21 02:40:26;;;;;;;37.50;18.87;;;;;;;19.22;57.43;97142.28;4818658;29;20209;-70
2022/07/21 02:42:53;;;;;;;31.87;17.37;;;;;;;19.29;56.87;97132.94;4818276;29;20216;-70
2022/07/21 02:45:20;;;;;;;29.70;16.37;;;;;;;19.42;56.54;97131.06;4818494;29;20693;-70
2022/07/21 02:48:04;;;;;;;31.40;16.40;;;;;;;19.14;57.20;97134.16;4818428;29;20892;-70
2022/07/21 02:50:33;;;;;;;24.03;13.67;;;;;;;19.22;57.00;97130.91;4818243;29;20194;-70
2022/07/21 02:53:05;;;;;;;24.10;13.27;;;;;;;19.26;56.87;97130.56;4818639;29;20754;-70
2022/07/21 02:55:33;;;;;;;29.00;14.07;;;;;;;19.14;57.07;97135.94;4801501;29;20208;-70
2022/07/21 02:58:03;;;;;;;21.13;12.37;;;;;;;18.86;57.98;97132.00;4818461;29;20274;-70
2022/07/21 03:00:30;;;;;;;18.23;10.83;;;;;;;18.65;58.62;97129.22;4801616;29;20209;-70
2022/07/21 03:02:57;;;;;;;22.43;11.40;;;;;;;18.45;59.18;97127.28;4818158;29;20307;-70
2022/07/21 03:05:24;;;;;;;18.20;10.70;;;;;;;18.34;59.70;97129.03;4818243;29;20201;-70
2022/07/21 03:07:51;;;;;;;17.23;8.93;;;;;;;18.51;59.38;97125.97;4817611;29;20205;-70
2022/07/21 03:10:18;;;;;;;14.20;8.27;;;;;;;18.58;59.10;97125.41;4818484;29;20212;-69
2022/07/21 03:12:45;;;;;;;12.07;7.53;;;;;;;18.43;59.24;97126.56;4817680;29;20214;-70
2022/07/21 03:15:12;;;;;;;14.50;8.17;;;;;;;18.49;59.14;97117.41;4818104;29;20236;-71
2022/07/21 03:17:39;;;;;;;19.83;9.57;;;;;;;18.60;59.16;97117.44;4817797;29;20319;-70
2022/07/21 03:20:06;;;;;;;21.10;12.10;;;;;;;18.54;59.09;97117.91;4817866;29;20188;-69
2022/07/21 03:22:33;;;;;;;27.97;14.23;;;;;;;18.51;59.16;97118.13;4818216;29;20597;-70
2022/07/21 03:25:00;;;;;;;38.67;18.77;;;;;;;18.34;59.52;97123.78;4806629;29;20719;-69
2022/07/21 03:27:29;;;;;;;42.17;20.47;;;;;;;18.15;60.13;97129.56;4818184;29;20225;-70
2022/07/21 03:29:56;;;;;;;41.50;22.83;;;;;;;17.96;61.34;97126.63;4817465;29;20216;-70
2022/07/21 03:32:23;;;;;;;47.73;24.93;;;;;;;17.82;61.42;97125.03;4818144;29;20214;-70
2022/07/21 03:34:50;;;;;;;45.13;23.83;;;;;;;17.76;62.35;97120.22;4817720;29;20766;-69
2022/07/21 03:37:17;;;;;;;63.03;29.77;;;;;;;17.87;62.29;97115.03;4817743;29;20252;-70
2022/07/21 03:39:44;;;;;;;65.30;30.67;;;;;;;17.83;62.15;97120.59;4817952;29;20713;-70
2022/07/21 03:42:11;;;;;;;51.37;25.63;;;;;;;17.74;62.78;97119.50;4817945;29;20588;-70
2022/07/21 03:44:38;;;;;;;38.17;20.00;;;;;;;17.63;63.32;97113.38;4818237;29;20203;-70
2022/07/21 03:47:05;;;;;;;31.00;17.70;;;;;;;17.79;62.64;97122.63;4817286;29;20267;-68
2022/07/21 03:49:32;;;;;;;29.73;15.50;;;;;;;17.95;62.52;97121.50;4818785;29;20211;-69
2022/07/21 03:51:59;;;;;;;26.40;14.73;;;;;;;18.43;61.69;97113.47;4821398;29;20694;-70
2022/07/21 03:54:26;;;;;;;35.30;17.73;;;;;;;18.91;60.59;97116.75;4821130;29;20229;-71
2022/07/21 03:56:53;;;;;;;38.90;19.80;;;;;;;18.97;60.40;97116.25;4821105;29;20208;-70
2022/07/21 03:59:20;;;;;;;48.07;24.37;;;;;;;19.13;60.15;97118.50;4820764;29;20254;-71
2022/07/21 04:01:47;;;;;;;50.23;25.50;;;;;;;19.41;58.88;97121.47;4821061;29;20261;-71
2022/07/21 04:04:14;;;;;;;44.87;19.93;;;;;;;19.46;59.08;97127.22;4820774;29;20276;-71
2022/07/21 04:06:40;;;;;;;47.63;22.60;;;;;;;19.78;58.22;97115.91;4810562;29;20262;-70
2022/07/21 04:09:07;;;;;;;41.13;21.57;;;;;;;20.22;56.81;97115.75;4819991;29;20270;-71
2022/07/21 04:11:34;;;;;;;48.70;25.23;;;;;;;20.74;55.56;97128.84;4820493;29;20750;-71
2022/07/21 04:14:01;;;;;;;45.13;22.80;;;;;;;20.99;54.08;97111.78;4820456;29;20292;-72
2022/07/21 04:16:28;;;;;;;44.13;22.87;;;;;;;21.56;52.98;97122.53;4820093;29;20252;-71
2022/07/21 04:18:55;;;;;;;40.37;20.10;;;;;;;21.19;53.32;97121.44;4820643;29;20687;-72
2022/07/21 04:21:23;;;;;;;41.83;20.30;;;;;;;20.87;53.93;97113.69;4803669;29;20293;-72
2022/07/21 04:23:50;;;;;;;43.67;19.87;;;;;;;20.97;53.57;97119.81;4820672;29;20276;-70
2022/07/21 04:26:17;;;;;;;31.53;15.53;;;;;;;20.89;53.01;97111.75;4820388;29;20209;-71
2022/07/21 04:28:44;;;;;;;32.80;15.73;;;;;;;21.06;53.14;97108.50;4820242;29;20210;-71
2022/07/21 04:31:11;;;;;;;33.87;16.17;;;;;;;21.01;52.54;97110.69;4820342;29;20758;-71
2022/07/21 04:33:38;;;;;;;34.43;18.20;;;;;;;21.10;52.67;97108.25;4820061;29;20287;-71
2022/07/21 04:36:05;;;;;;;31.77;16.33;;;;;;;20.95;52.85;97108.59;4820515;29;20212;-71
2022/07/21 04:38:32;;;;;;;27.83;13.93;;;;;;;21.02;53.04;97106.25;4803682;29;20264;-71
2022/07/21 04:40:59;;;;;;;13.87;8.33;;;;;;;20.93;52.59;97112.31;4820089;29;20214;-71
2022/07/21 04:43:26;;;;;;;9.73;7.13;;;;;;;21.08;52.37;97113.66;4819659;29;20638;-71
2022/07/21 04:45:53;;;;;;;10.00;5.80;;;;;;;21.61;51.48;97109.78;4819834;29;20312;-71
2022/07/21 04:48:21;;;;;;;8.00;5.17;;;;;;;21.85;50.75;97112.06;4819874;29;20205;-71
2022/07/21 04:50:47;;;;;;;6.40;5.43;;;;;;;22.14;50.12;97107.63;4819215;29;20589;-71
2022/07/21 04:53:14;;;;;;;8.47;5.43;;;;;;;22.27;49.87;97099.44;4820288;29;20261;-71
2022/07/21 04:55:41;;;;;;;10.30;6.47;;;;;;;22.36;49.55;97102.03;4819199;29;20325;-71
2022/07/21 04:58:08;;;;;;;9.77;6.20;;;;;;;22.65;48.78;97107.28;4803513;29;20213;-71
2022/07/21 05:00:35;;;;;;;11.23;6.27;;;;;;;22.92;48.49;97103.88;4818759;29;20265;-70
2022/07/21 05:03:02;;;;;;;9.20;5.17;;;;;;;23.28;47.57;97108.34;4819125;29;20254;-70
2022/07/21 05:05:29;;;;;;;6.57;5.33;;;;;;;23.47;47.46;97105.63;4819544;29;20213;-70
2022/07/21 05:07:56;;;;;;;7.87;5.07;;;;;;;23.41;47.50;97114.16;4819658;29;20202;-70
2022/07/21 05:10:24;;;;;;;10.93;4.80;;;;;;;23.37;47.79;97113.59;4819734;29;20684;-70
2022/07/21 05:12:51;;;;;;;4.77;4.07;;;;;;;23.39;47.45;97116.91;4818858;29;20238;-70
2022/07/21 05:15:18;;;;;;;6.10;4.53;;;;;;;23.37;47.72;97107.47;4819503;29;20301;-69
2022/07/21 05:17:45;;;;;;;4.93;4.13;;;;;;;23.57;47.45;97114.34;4801885;29;20230;-70
2022/07/21 05:20:12;;;;;;;7.77;4.10;;;;;;;23.69;47.46;97105.22;4818898;29;20216;-69
2022/07/21 05:22:39;;;;;;;5.37;4.00;;;;;;;23.81;47.14;97111.94;4819069;29;20207;-70
2022/07/21 05:25:07;;;;;;;7.23;4.50;;;;;;;23.96;47.46;97106.97;4818932;29;20637;-70
2022/07/21 05:27:34;;;;;;;8.17;4.60;;;;;;;24.21;46.37;97111.53;4821092;29;20591;-70
2022/07/21 05:30:01;;;;;;;5.40;3.73;;;;;;;24.38;45.54;97107.22;4818655;29;20786;-71
2022/07/21 05:32:29;;;;;;;10.43;4.30;;;;;;;24.61;45.71;97103.06;4819601;29;20268;-72
2022/07/21 05:34:57;;;;;;;5.50;4.20;;;;;;;24.59;45.78;97111.16;4818961;29;20236;-71
2022/07/21 05:37:24;;;;;;;4.80;4.13;;;;;;;24.71;45.57;97098.50;4818765;29;20231;-71
2022/07/21 05:39:51;;;;;;;5.90;4.37;;;;;;;24.95;45.45;97106.63;4819018;29;20217;-71
2022/07/21 05:42:18;;;;;;;6.20;4.70;;;;;;;25.30;44.48;97103.00;4819033;29;20205;-71
2022/07/21 05:44:44;;;;;;;5.17;3.40;;;;;;;25.40;43.10;97107.19;4819524;29;20208;-73
2022/07/21 05:47:11;;;;;;;4.97;3.90;;;;;;;25.73;43.33;97108.13;4818506;29;20213;-70
2022/07/21 05:49:38;;;;;;;7.27;3.93;;;;;;;26.02;42.71;97105.03;4819357;29;20210;-71
2022/07/21 05:52:05;;;;;;;4.77;3.33;;;;;;;26.36;41.85;97095.13;4818573;29;20224;-70
2022/07/21 05:54:32;;;;;;;6.80;3.30;;;;;;;26.69;41.07;97098.63;4818881;29;20226;-70
2022/07/21 05:56:59;;;;;;;7.63;3.30;;;;;;;26.79;40.63;97094.78;4818736;29;20226;-69
2022/07/21 05:59:26;;;;;;;4.30;3.03;;;;;;;26.94;40.23;97093.09;4818847;29;20730;-71
2022/07/21 06:01:53;;;;;;;3.40;3.10;;;;;;;27.25;40.36;97087.84;4817733;29;20229;-72
2022/07/21 06:04:20;;;;;;;3.57;2.80;;;;;;;27.58;39.71;97094.72;4818119;29;20218;-71
2022/07/21 06:06:48;;;;;;;6.57;3.43;;;;;;;27.88;39.38;97091.19;4801829;29;20217;-69
2022/07/21 06:09:15;;;;;;;8.20;3.63;;;;;;;27.92;38.75;97086.38;4818069;29;20321;-69
2022/07/21 06:11:41;;;;;;;6.70;4.00;;;;;;;28.29;38.09;97082.97;4818243;29;20206;-72
2022/07/21 06:14:08;;;;;;;3.67;2.73;;;;;;;28.47;37.08;97086.13;4817991;29;20225;-71
2022/07/21 06:16:36;;;;;;;6.10;3.70;;;;;;;28.57;37.05;97071.59;4802939;29;20242;-71
2022/07/21 06:19:06;;;;;;;8.83;3.60;;;;;;;28.84;36.52;97084.31;4801754;29;20310;-72
2022/07/21 06:21:33;;;;;;;4.77;3.20;;;;;;;28.95;35.54;97085.72;4817754;29;20201;-70
2022/07/21 06:24:10;;;;;;;5.70;4.07;;;;;;;29.08;35.64;97075.22;4818479;29;20233;-74
2022/07/21 06:26:38;;;;;;;8.17;4.17;;;;;;;29.30;35.39;97078.84;4818054;29;20206;-73
2022/07/21 06:29:06;;;;;;;8.67;6.00;;;;;;;29.31;33.97;97080.47;4818194;29;20194;-70
2022/07/21 06:31:33;;;;;;;5.83;4.10;;;;;;;29.43;33.85;97084.34;4817932;29;20675;-70
2022/07/21 06:34:00;;;;;;;4.83;3.10;;;;;;;29.61;33.40;97072.22;4801351;29;20206;-71
2022/07/21 06:36:27;;;;;;;4.73;3.00;;;;;;;29.84;33.39;97082.81;4818365;29;20214;-74
2022/07/21 06:38:55;;;;;;;6.57;3.70;;;;;;;29.78;33.05;97066.72;4801448;29;20206;-73
2022/07/21 06:41:22;;;;;;;6.97;3.47;;;;;;;29.95;33.07;97071.63;4802222;29;20229;-71
2022/07/21 06:43:49;;;;;;;3.97;2.90;;;;;;;29.98;32.94;97073.94;4818023;29;20209;-71
2022/07/21 06:46:16;;;;;;;5.03;3.03;;;;;;;29.84;33.33;97074.81;4818048;29;20709;-71
2022/07/21 06:48:44;;;;;;;7.33;3.73;;;;;;;29.92;33.08;97080.03;4817692;29;20258;-70
2022/07/21 06:51:11;;;;;;;5.97;3.10;;;;;;;29.89;32.51;97063.53;4818051;29;20222;-70
2022/07/21 06:53:38;;;;;;;8.13;3.00;;;;;;;30.27;33.06;97067.63;4818176;29;20255;-71
2022/07/21 06:56:05;;;;;;;2.93;2.63;;;;;;;30.21;32.64;97069.19;4817638;29;20733;-70
2022/07/21 06:58:32;;;;;;;4.97;3.07;;;;;;;30.34;32.53;97064.00;4801502;29;20210;-71
2022/07/21 07:01:07;;;;;;;4.63;3.23;;;;;;;30.35;32.38;97046.97;4817338;29;20603;-72
2022/07/21 07:03:35;;;;;;;4.67;2.70;;;;;;;30.50;31.84;97069.06;4817548;29;20701;-72
2022/07/21 07:06:03;;;;;;;4.73;2.83;;;;;;;30.42;32.72;97069.22;4817891;29;20246;-72
2022/07/21 07:08:30;;;;;;;11.70;4.97;;;;;;;30.14;32.79;97079.00;4817245;29;20221;-72
2022/07/21 07:10:58;;;;;;;6.17;3.10;;;;;;;30.11;32.58;97075.91;4817663;29;20202;-74
2022/07/21 07:13:25;;;;;;;3.70;2.80;;;;;;;30.18;32.11;97074.94;4817029;29;20208;-71
2022/07/21 07:16:13;;;;;;;13.13;8.00;;;;;;;30.05;32.09;97080.16;4817140;29;20240;-71
2022/07/21 07:18:40;;;;;;;10.97;4.80;;;;;;;30.07;32.44;97096.81;4816958;29;20202;-71
2022/07/21 07:21:07;;;;;;;3.43;2.63;;;;;;;29.78;33.08;97080.06;4817028;29;20683;-70
2022/07/21 07:23:39;;;;;;;2.83;2.47;;;;;;;29.62;32.91;97065.88;4817537;29;20209;-71
2022/07/21 07:26:07;;;;;;;6.53;4.60;;;;;;;29.66;32.97;97085.03;4803919;29;20238;-70
2022/07/21 07:28:35;;;;;;;15.07;9.00;;;;;;;29.64;32.58;97079.88;4821523;29;20221;-72
2022/07/21 07:31:02;;;;;;;7.17;3.70;;;;;;;29.69;33.11;97090.84;4820518;29;20209;-69
2022/07/21 07:33:29;;;;;;;3.13;2.50;;;;;;;29.46;32.99;97091.97;4820683;29;20599;-72
2022/07/21 07:35:57;;;;;;;5.27;2.80;;;;;;;29.48;33.08;97088.09;4820585;29;20237;-71
2022/07/21 07:38:24;;;;;;;3.10;2.50;;;;;;;29.40;33.15;97098.88;4820589;29;20213;-71
2022/07/21 07:40:51;;;;;;;5.07;2.47;;;;;;;29.53;32.72;97093.69;4820824;29;20206;-70
2022/07/21 07:43:19;;;;;;;6.47;3.90;;;;;;;29.68;32.58;97085.66;4820161;29;20210;-69
2022/07/21 07:45:46;;;;;;;11.30;3.17;;;;;;;29.87;32.88;97089.59;4804678;29;20256;-70
2022/07/21 07:48:13;;;;;;;10.47;5.43;;;;;;;29.94;32.95;97094.03;4820205;29;20231;-71
2022/07/21 07:50:40;;;;;;;6.97;2.97;;;;;;;30.07;32.84;97088.78;4820424;29;20202;-71
2022/07/21 07:53:07;;;;;;;11.80;5.87;;;;;;;29.64;32.32;97060.34;4820430;29;20209;-71
2022/07/21 07:55:34;;;;;;;10.73;6.47;;;;;;;29.71;33.06;97082.63;4820516;29;20638;-69
2022/07/21 07:58:01;;;;;;;4.40;2.97;;;;;;;29.87;32.53;97085.09;4820234;29;20262;-70
2022/07/21 08:00:28;;;;;;;4.90;3.03;;;;;;;30.00;32.78;97090.59;4819656;29;20585;-72
2022/07/21 08:03:16;;;;;;;4.27;2.87;;;;;;;30.15;32.90;97079.84;4820363;29;20205;-71
2022/07/21 08:05:43;;;;;;;3.97;2.97;;;;;;;30.15;32.43;97075.31;4803532;29;20628;-71
2022/07/21 08:08:11;;;;;;;5.40;3.13;;;;;;;30.33;32.00;97066.88;4819789;29;20194;-72
2022/07/21 08:10:39;;;;;;;3.60;2.60;;;;;;;30.37;32.16;97069.00;4820285;29;20263;-71
2022/07/21 08:13:10;;;;;;;3.20;2.20;;;;;;;30.47;31.64;97076.66;4804149;29;20204;-72
2022/07/21 08:15:37;;;;;;;5.77;2.70;;;;;;;30.46;32.10;97078.50;4820090;29;20924;-72
2022/07/21 08:18:05;;;;;;;2.63;2.43;;;;;;;30.27;31.88;97030.22;4819093;29;20248;-72
2022/07/21 08:20:33;;;;;;;5.07;3.00;;;;;;;30.53;31.88;97071.38;4819878;29;20213;-71
2022/07/21 08:23:01;;;;;;;4.83;2.70;;;;;;;30.64;31.43;97071.88;4819787;29;20202;-71
2022/07/21 08:25:28;;;;;;;4.03;2.57;;;;;;;30.50;31.34;97074.44;4819372;29;20839;-71
2022/07/21 08:27:55;;;;;;;5.50;2.80;;;;;;;30.35;32.32;97068.34;4819715;29;20271;-71
2022/07/21 08:30:22;;;;;;;5.37;2.80;;;;;;;30.31;32.23;97063.59;4819531;29;20209;-71
2022/07/21 08:32:56;;;;;;;3.73;2.33;;;;;;;30.37;32.36;97060.97;4820175;29;20643;-71
2022/07/21 08:35:23;;;;;;;4.60;2.40;;;;;;;30.58;31.71;97064.63;4819355;29;20253;-71
2022/07/21 08:37:54;;;;;;;6.27;2.83;;;;;;;30.89;31.67;97057.06;4819585;29;20201;-71
2022/07/21 08:40:23;;;;;;;3.30;2.73;;;;;;;30.85;31.45;97061.16;4819488;29;20263;-72
2022/07/21 08:42:51;;;;;;;3.00;2.70;;;;;;;30.91;32.02;97060.38;4819278;29;20209;-71
2022/07/21 08:45:18;;;;;;;3.13;2.80;;;;;;;30.87;31.57;97062.59;4819544;29;20683;-71
2022/07/21 08:47:45;;;;;;;6.10;2.80;;;;;;;30.83;31.60;97058.63;4819226;29;20202;-72
2022/07/21 08:50:12;;;;;;;2.70;2.50;;;;;;;30.54;32.36;97058.84;4819559;29;20270;-71
2022/07/21 08:52:40;;;;;;;3.53;2.67;;;;;;;30.44;32.04;97059.16;4819317;29;20202;-71
2022/07/21 08:55:07;;;;;;;7.07;2.70;;;;;;;30.64;32.79;97058.50;4819700;29;20222;-72
2022/07/21 08:57:37;;;;;;;3.90;2.83;;;;;;;30.95;32.09;97058.97;4819204;29;20229;-72
2022/07/21 09:00:05;;;;;;;5.13;3.13;;;;;;;30.93;31.26;97052.97;4819207;29;20198;-72
2022/07/21 09:02:34;;;;;;;42.33;20.37;;;;;;;30.67;31.53;97058.09;4819543;29;20202;-72
2022/07/21 09:05:04;;;;;;;14.47;7.93;;;;;;;30.76;31.71;97052.41;4818769;29;20210;-71
2022/07/21 09:07:48;;;;;;;6.53;3.03;;;;;;;30.95;31.70;97050.94;4819499;29;20263;-72
2022/07/21 09:10:23;;;;;;;38.60;18.02;;;;;;;30.77;31.73;97048.72;4819742;29;20202;-72
2022/07/21 09:12:58;;;;;;;22.65;11.50;;;;;;;30.75;31.80;97039.25;4819021;29;20217;-70
2022/07/21 09:15:28;;;;;;;10.43;5.87;;;;;;;30.78;32.00;97044.19;4819432;29;20237;-71
2022/07/21 09:18:10;;;;;;;28.20;15.37;;;;;;;30.69;31.90;97038.16;4818183;29;20708;-71
2022/07/21 09:20:47;;;;;;;7.77;4.80;;;;;;;30.48;31.99;97033.69;4818065;29;20242;-71
2022/07/21 09:23:15;;;;;;;48.20;23.03;;;;;;;30.66;31.94;97046.59;4819003;29;20541;-70
2022/07/21 09:25:45;;;;;;;10.30;6.20;;;;;;;30.73;31.92;97044.78;4802453;29;20256;-70
2022/07/21 09:28:16;;;;;;;32.13;17.37;;;;;;;30.66;31.62;97045.75;4802617;29;20301;-71
2022/07/21 09:30:53;;;;;;;16.83;10.93;;;;;;;30.93;31.71;97039.59;4818609;29;20218;-70
2022/07/21 09:33:45;;;;;;;6.53;3.97;;;;;;;31.25;31.56;97036.25;4818949;29;20229;-71
2022/07/21 09:36:17;;;;;;;3.63;3.23;;;;;;;31.18;30.56;97035.41;4818900;29;20394;-70
2022/07/21 09:38:50;;;;;;;4.37;3.10;;;;;;;30.97;31.17;97022.97;4818986;29;20209;-71
2022/07/21 09:41:20;;;;;;;2.97;2.70;;;;;;;31.14;31.09;97042.19;4819226;29;20234;-70
2022/07/21 09:43:52;;;;;;;4.80;3.17;;;;;;;31.37;31.49;97029.31;4818386;29;20240;-70
2022/07/21 09:46:23;;;;;;;5.07;3.20;;;;;;;31.71;30.91;97031.94;4819030;29;20198;-70
2022/07/21 09:48:53;;;;;;;5.50;3.00;;;;;;;31.60;30.37;97031.69;4818023;29;20292;-71
2022/07/21 09:51:43;;;;;;;5.53;2.78;;;;;;;31.41;30.75;97022.56;4818501;29;20198;-70
2022/07/21 09:54:13;;;;;;;3.70;3.13;;;;;;;31.72;30.20;97028.22;4802367;29;20641;-72
2022/07/21 09:56:43;;;;;;;3.95;2.75;;;;;;;31.54;30.04;97030.66;4817802;29;20237;-70
2022/07/21 09:59:11;;;;;;;5.50;3.00;;;;;;;31.38;30.32;97036.31;4818396;29;20565;-71
2022/07/21 10:01:39;;;;;;;3.23;2.30;;;;;;;31.14;31.25;97034.16;4817984;29;20294;-71
2022/07/21 10:04:07;;;;;;;3.37;2.67;;;;;;;30.92;31.10;97027.22;4818343;29;20210;-70
2022/07/21 10:06:37;;;;;;;5.85;4.13;;;;;;;31.13;31.86;97040.53;4818204;29;20639;-71
2022/07/21 10:09:07;;;;;;;4.22;3.03;;;;;;;31.30;30.67;97041.84;4818400;29;20206;-71
2022/07/21 10:11:40;;;;;;;3.45;3.15;;;;;;;31.42;30.49;97020.72;4818855;29;20218;-72
2022/07/21 10:14:12;;;;;;;6.60;3.10;;;;;;;31.34;30.73;97040.44;4817867;29;20234;-70
2022/07/21 10:16:39;;;;;;;4.68;3.17;;;;;;;31.29;30.48;97026.81;4818121;29;20241;-71
2022/07/21 10:19:26;;;;;;;9.65;5.15;;;;;;;31.01;31.26;97040.28;4818105;29;20209;-71
2022/07/21 10:22:20;;;;;;;6.05;4.00;;;;;;;31.15;30.28;97031.28;4818251;29;20306;-72
2022/07/21 10:24:47;;;;;;;5.60;3.20;;;;;;;31.37;29.83;97023.16;4818414;29;20259;-70
2022/07/21 10:27:14;;;;;;;4.28;2.92;;;;;;;31.28;30.22;97025.16;4817687;29;20210;-72
2022/07/21 10:30:03;;;;;;;4.30;2.72;;;;;;;31.12;29.69;97025.47;4818128;29;20198;-71
2022/07/21 10:32:37;;;;;;;4.87;2.73;;;;;;;31.13;30.58;97035.16;4818198;29;20200;-72
2022/07/21 10:35:46;;;;;;;5.83;3.27;;;;;;;31.03;30.23;97010.63;4817740;29;20784;-71
2022/07/21 10:38:39;;;;;;;7.90;3.70;;;;;;;31.33;29.17;97006.63;4761687;30;20212;-70
2022/07/21 10:41:06;;;;;;;11.33;5.80;;;;;;;31.49;28.66;97011.66;4759209;30;20223;-70
2022/07/21 10:43:33;;;;;;;9.85;3.50;;;;;;;31.73;28.63;97012.97;4799590;29;20499;-70
2022/07/21 10:46:00;;;;;;;6.93;3.77;;;;;;;31.65;28.05;97005.97;4818400;29;20206;-71
2022/07/21 10:48:36;;;;;;;6.17;3.63;;;;;;;31.43;28.48;96995.59;4817284;29;20205;-70
2022/07/21 10:51:07;;;;;;;6.00;3.53;;;;;;;31.45;28.11;97002.38;4818082;29;20213;-71
2022/07/21 10:53:34;;;;;;;9.50;4.90;;;;;;;31.70;27.80;96995.47;4817575;29;20730;-71
2022/07/21 10:56:02;;;;;;;7.57;3.47;;;;;;;31.72;27.36;96996.06;4817514;29;20229;-70
2022/07/21 10:58:31;;;;;;;4.15;2.92;;;;;;;31.57;28.61;96999.97;4817216;29;20209;-70
2022/07/21 11:00:59;;;;;;;4.13;2.75;;;;;;;31.60;28.31;96995.03;4817065;29;20233;-70
2022/07/21 11:03:40;;;;;;;3.13;1.83;;;;;;;31.84;27.47;96996.31;4818020;29;20201;-72
2022/07/21 11:06:22;;;;;;;7.72;2.72;;;;;;;31.91;27.37;96999.81;4817522;29;20214;-70
2022/07/21 11:09:04;;;;;;;4.43;3.00;;;;;;;32.04;28.35;96994.50;4817839;29;20208;-71
2022/07/21 11:11:58;;;;;;;6.18;3.05;;;;;;;32.25;27.69;96998.84;4817694;29;20233;-71
2022/07/21 11:14:43;;;;;;;4.93;2.47;;;;;;;32.18;27.62;96998.00;4817775;29;20214;-70
2022/07/21 11:17:25;;;;;;;3.28;2.60;;;;;;;32.13;27.73;96984.44;4817295;29;20288;-70
2022/07/21 11:19:52;;;;;;;3.03;2.55;;;;;;;32.23;28.47;96982.16;4817730;29;20205;-71
2022/07/21 11:22:23;;;;;;;6.88;5.18;;;;;;;32.37;28.16;96984.63;4817172;29;20193;-72
2022/07/21 11:24:58;;;;;;;3.83;2.83;;;;;;;32.14;27.97;96999.47;4817838;29;20215;-70
2022/07/21 11:27:31;;;;;;;4.00;2.85;;;;;;;32.04;28.47;96978.44;4817358;29;20217;-70
2022/07/21 11:30:01;;;;;;;3.85;2.92;;;;;;;32.43;28.36;96974.91;4817926;29;20209;-73
2022/07/21 11:32:30;;;;;;;2.65;2.45;;;;;;;32.61;27.55;96962.53;4816840;29;20202;-70
2022/07/21 11:34:59;;;;;;;4.07;2.42;;;;;;;32.55;26.84;96978.63;4817057;29;20205;-70
2022/07/21 11:37:37;;;;;;;3.17;2.53;;;;;;;32.56;27.04;96964.22;4817335;29;20244;-71
2022/07/21 11:40:15;;;;;;;4.32;2.55;;;;;;;32.79;27.12;96965.38;4800323;29;20252;-71